createdAt,value
2023-05-19T00:00:50.604Z,54.58
2023-05-19T00:01:48.979Z,55.11
2023-05-19T00:02:49.041Z,58.87
2023-05-19T00:03:48.945Z,66.22
2023-05-19T00:04:48.931Z,55.38
2023-05-19T00:05:48.980Z,56.06
2023-05-19T00:06:48.937Z,60.08
2023-05-19T00:07:48.929Z,55.87
2023-05-19T00:08:48.950Z,58.05
2023-05-19T00:09:48.919Z,54.25
2023-05-19T00:10:48.913Z,53.79
2023-05-19T00:11:48.923Z,53.04
2023-05-19T00:12:48.905Z,59.55
2023-05-19T00:13:48.900Z,56.38
2023-05-19T00:14:48.895Z,58.94
2023-05-19T00:15:48.915Z,60.90
2023-05-19T00:16:48.866Z,61.53
2023-05-19T00:17:48.895Z,59.94
2023-05-19T00:18:49.913Z,58.77
2023-05-19T00:19:49.375Z,54.78
2023-05-19T00:20:48.867Z,58.53
2023-05-19T00:21:48.840Z,54.30
2023-05-19T00:22:48.842Z,55.05
2023-05-19T00:23:48.845Z,56.57
2023-05-19T00:24:48.838Z,58.84
2023-05-19T00:25:48.850Z,55.24
2023-05-19T00:26:48.803Z,58.24
2023-05-19T00:27:48.808Z,61.58
2023-05-19T00:28:48.799Z,61.07
2023-05-19T00:29:48.831Z,54.53
2023-05-19T00:30:48.802Z,53.69
2023-05-19T00:31:48.830Z,58.05
2023-05-19T00:32:48.826Z,58.58
2023-05-19T00:33:48.781Z,59.62
2023-05-19T00:34:48.783Z,57.80
2023-05-19T00:35:48.759Z,57.69
2023-05-19T00:36:48.745Z,53.95
2023-05-19T00:37:48.786Z,55.10
2023-05-19T00:38:48.745Z,54.63
2023-05-19T00:39:48.731Z,59.11
2023-05-19T00:40:48.747Z,53.54
2023-05-19T00:41:48.742Z,53.57
2023-05-19T00:42:48.768Z,58.74
2023-05-19T00:43:48.749Z,57.69
2023-05-19T00:44:48.728Z,53.20
2023-05-19T00:45:48.717Z,54.17
2023-05-19T00:46:48.751Z,59.99
2023-05-19T00:47:48.779Z,54.92
2023-05-19T00:48:48.710Z,54.41
2023-05-19T00:49:48.694Z,56.62
2023-05-19T00:50:48.691Z,60.26
2023-05-19T00:51:48.691Z,66.76
2023-05-19T00:52:48.662Z,59.42
2023-05-19T00:53:48.670Z,59.83
2023-05-19T00:54:48.659Z,56.61
2023-05-19T00:55:48.675Z,58.91
2023-05-19T00:56:48.630Z,67.93
2023-05-19T00:57:48.633Z,54.55
2023-05-19T00:58:48.629Z,54.40
2023-05-19T00:59:48.621Z,54.19
2023-05-19T01:00:48.648Z,54.29
2023-05-19T01:01:48.600Z,54.11
2023-05-19T01:02:48.720Z,62.29
2023-05-19T01:03:48.780Z,55.83
2023-05-19T01:04:48.606Z,53.84
2023-05-19T01:05:48.636Z,54.34
2023-05-19T01:06:48.669Z,55.82
2023-05-19T01:07:48.567Z,59.42
2023-05-19T01:08:48.578Z,61.06
2023-05-19T01:09:48.576Z,57.64
2023-05-19T01:10:48.550Z,62.21
2023-05-19T01:11:48.550Z,67.15
2023-05-19T01:12:48.557Z,58.87
2023-05-19T01:13:48.973Z,54.68
2023-05-19T01:14:49.396Z,54.87
2023-05-19T01:15:48.556Z,55.10
2023-05-19T01:16:48.712Z,64.79
2023-05-19T01:17:48.570Z,54.72
2023-05-19T01:18:48.551Z,54.57
2023-05-19T01:19:48.540Z,54.71
2023-05-19T01:20:48.510Z,59.15
2023-05-19T01:21:48.498Z,61.62
2023-05-19T01:22:49.408Z,54.97
2023-05-19T01:23:48.488Z,56.87
2023-05-19T01:24:49.392Z,63.80
2023-05-19T01:25:48.556Z,55.29
2023-05-19T01:26:48.462Z,59.24
2023-05-19T01:27:48.485Z,58.04
2023-05-19T01:28:48.458Z,56.24
2023-05-19T01:29:48.530Z,55.09
2023-05-19T01:30:48.451Z,59.97
2023-05-19T01:31:48.525Z,54.79
2023-05-19T01:32:48.529Z,57.08
2023-05-19T01:33:48.428Z,56.97
2023-05-19T01:34:49.405Z,59.82
2023-05-19T01:35:48.492Z,56.05
2023-05-19T01:36:48.417Z,64.53
2023-05-19T01:37:48.414Z,56.94
2023-05-19T01:38:48.410Z,62.53
2023-05-19T01:39:49.390Z,55.93
2023-05-19T01:40:48.437Z,62.45
2023-05-19T01:41:48.373Z,63.07
2023-05-19T01:42:48.370Z,57.84
2023-05-19T01:43:48.392Z,70.78
2023-05-19T01:44:49.378Z,69.88
2023-05-19T01:45:48.482Z,56.08
2023-05-19T01:46:48.342Z,58.55
2023-05-19T01:47:48.378Z,56.33
2023-05-19T01:48:48.319Z,58.62
2023-05-19T01:49:48.356Z,55.55
2023-05-19T01:50:48.341Z,59.70
2023-05-19T01:51:48.302Z,61.81
2023-05-19T01:52:48.326Z,59.50
2023-05-19T01:53:48.298Z,55.53
2023-05-19T01:54:48.962Z,65.85
2023-05-19T01:55:48.440Z,56.21
2023-05-19T01:56:48.274Z,59.20
2023-05-19T01:57:48.258Z,59.37
2023-05-19T01:58:48.266Z,55.46
2023-05-19T01:59:48.332Z,59.89
2023-05-19T02:00:48.292Z,55.69
2023-05-19T02:01:48.301Z,59.47
2023-05-19T02:02:48.246Z,58.43
2023-05-19T02:03:48.282Z,63.63
2023-05-19T02:04:49.039Z,62.97
2023-05-19T02:05:48.277Z,64.05
2023-05-19T02:06:48.209Z,55.69
2023-05-19T02:07:48.212Z,55.74
2023-05-19T02:08:48.213Z,65.22
2023-05-19T02:09:48.264Z,61.47
2023-05-19T02:10:48.189Z,69.00
2023-05-19T02:11:48.184Z,64.03
2023-05-19T02:12:48.172Z,55.93
2023-05-19T02:13:48.181Z,58.30
2023-05-19T02:14:48.179Z,55.77
2023-05-19T02:15:48.200Z,60.61
2023-05-19T02:16:48.381Z,64.54
2023-05-19T02:17:48.322Z,65.44
2023-05-19T02:18:48.175Z,55.99
2023-05-19T02:19:48.267Z,57.11
2023-05-19T02:20:48.133Z,64.03
2023-05-19T02:21:49.153Z,62.90
2023-05-19T02:22:48.138Z,55.60
2023-05-19T02:23:48.108Z,60.45
2023-05-19T02:24:48.153Z,55.89
2023-05-19T02:25:48.105Z,61.56
2023-05-19T02:26:48.091Z,56.47
2023-05-19T02:27:48.107Z,64.57
2023-05-19T02:28:48.101Z,65.07
2023-05-19T02:29:48.074Z,60.64
2023-05-19T02:30:48.054Z,66.69
2023-05-19T02:31:48.144Z,56.60
2023-05-19T02:32:48.165Z,60.73
2023-05-19T02:33:48.050Z,60.50
2023-05-19T02:34:48.045Z,56.99
2023-05-19T02:35:48.046Z,67.95
2023-05-19T02:36:48.045Z,67.68
2023-05-19T02:37:48.086Z,62.10
2023-05-19T02:38:48.028Z,61.67
2023-05-19T02:39:48.040Z,56.49
2023-05-19T02:40:48.008Z,62.55
2023-05-19T02:41:48.002Z,59.00
2023-05-19T02:42:48.020Z,62.55
2023-05-19T02:43:47.973Z,60.02
2023-05-19T02:44:47.986Z,60.17
2023-05-19T02:45:47.986Z,63.30
2023-05-19T02:46:48.030Z,60.77
2023-05-19T02:47:47.998Z,61.75
2023-05-19T02:48:47.970Z,63.31
2023-05-19T02:49:47.989Z,65.94
2023-05-19T02:50:47.947Z,65.85
2023-05-19T02:51:47.945Z,63.26
2023-05-19T02:52:47.927Z,60.50
2023-05-19T02:53:47.931Z,63.09
2023-05-19T02:54:47.949Z,62.71
2023-05-19T02:55:47.938Z,63.19
2023-05-19T02:56:47.929Z,64.24
2023-05-19T02:57:47.944Z,67.50
2023-05-19T02:58:47.928Z,59.70
2023-05-19T02:59:47.895Z,64.69
2023-05-19T03:00:47.929Z,61.39
2023-05-19T03:01:47.922Z,64.56
2023-05-19T03:02:47.987Z,72.09
2023-05-19T03:03:48.011Z,66.68
2023-05-19T03:04:47.868Z,57.95
2023-05-19T03:05:47.884Z,66.63
2023-05-19T03:06:47.850Z,68.27
2023-05-19T03:07:47.851Z,59.40
2023-05-19T03:08:47.832Z,59.20
2023-05-19T03:09:47.836Z,73.85
2023-05-19T03:10:47.817Z,61.83
2023-05-19T03:11:47.833Z,68.59
2023-05-19T03:12:48.855Z,67.55
2023-05-19T03:13:47.836Z,58.89
2023-05-19T03:14:47.820Z,61.31
2023-05-19T03:15:47.853Z,67.10
2023-05-19T03:16:47.889Z,68.26
2023-05-19T03:17:47.842Z,65.92
2023-05-19T03:18:47.898Z,62.72
2023-05-19T03:19:47.846Z,68.97
2023-05-19T03:20:47.775Z,70.65
2023-05-19T03:21:47.768Z,62.66
2023-05-19T03:22:47.744Z,65.88
2023-05-19T03:23:47.759Z,65.46
2023-05-19T03:24:47.738Z,65.96
2023-05-19T03:25:47.729Z,66.53
2023-05-19T03:26:47.786Z,69.36
2023-05-19T03:27:47.760Z,73.43
2023-05-19T03:28:47.737Z,65.16
2023-05-19T03:29:47.725Z,69.37
2023-05-19T03:30:47.704Z,65.05
2023-05-19T03:31:47.700Z,73.54
2023-05-19T03:32:47.866Z,71.83
2023-05-19T03:33:47.728Z,71.32
2023-05-19T03:34:47.904Z,72.66
2023-05-19T03:35:47.663Z,68.98
2023-05-19T03:36:47.692Z,66.40
2023-05-19T03:37:47.696Z,71.54
2023-05-19T03:38:47.660Z,68.83
2023-05-19T03:39:48.341Z,76.35
2023-05-19T03:40:47.642Z,73.64
2023-05-19T03:41:47.665Z,69.17
2023-05-19T03:42:47.747Z,69.47
2023-05-19T03:43:47.649Z,70.59
2023-05-19T03:44:48.387Z,69.42
2023-05-19T03:45:47.647Z,62.98
2023-05-19T03:46:47.607Z,64.84
2023-05-19T03:47:47.670Z,65.15
2023-05-19T03:48:47.611Z,70.19
2023-05-19T03:49:48.382Z,65.79
2023-05-19T03:50:47.606Z,68.43
2023-05-19T03:51:47.588Z,67.32
2023-05-19T03:52:47.573Z,64.38
2023-05-19T03:53:47.556Z,65.67
2023-05-19T03:54:48.285Z,71.67
2023-05-19T03:55:47.557Z,67.74
2023-05-19T03:56:47.541Z,65.34
2023-05-19T03:57:47.579Z,64.26
2023-05-19T03:58:47.550Z,64.18
2023-05-19T03:59:48.328Z,68.00
2023-05-19T04:00:47.511Z,65.45
2023-05-19T04:01:47.548Z,64.12
2023-05-19T04:02:47.559Z,67.61
2023-05-19T04:03:47.572Z,70.89
2023-05-19T04:04:47.668Z,69.01
2023-05-19T04:05:47.602Z,70.26
2023-05-19T04:06:47.509Z,65.82
2023-05-19T04:07:47.484Z,67.20
2023-05-19T04:08:47.488Z,70.28
2023-05-19T04:09:47.585Z,73.02
2023-05-19T04:10:47.469Z,73.98
2023-05-19T04:11:47.472Z,75.23
2023-05-19T04:12:47.441Z,66.63
2023-05-19T04:13:47.443Z,65.31
2023-05-19T04:14:47.467Z,72.01
2023-05-19T04:15:47.492Z,68.67
2023-05-19T04:16:47.431Z,57.30
2023-05-19T04:17:47.427Z,67.04
2023-05-19T04:18:47.543Z,70.76
2023-05-19T04:19:47.412Z,67.32
2023-05-19T04:20:47.409Z,63.61
2023-05-19T04:21:47.387Z,75.61
2023-05-19T04:22:47.376Z,67.28
2023-05-19T04:23:47.402Z,67.02
2023-05-19T04:24:47.408Z,70.66
2023-05-19T04:25:47.359Z,62.33
2023-05-19T04:26:47.389Z,70.13
2023-05-19T04:27:47.362Z,72.15
2023-05-19T04:28:47.461Z,73.68
2023-05-19T04:29:47.373Z,70.04
2023-05-19T04:30:47.365Z,68.50
2023-05-19T04:31:47.363Z,66.69
2023-05-19T04:32:47.331Z,71.40
2023-05-19T04:33:47.317Z,70.43
2023-05-19T04:34:47.313Z,62.47
2023-05-19T04:35:47.302Z,73.64
2023-05-19T04:36:47.310Z,67.47
2023-05-19T04:37:47.341Z,68.05
2023-05-19T04:38:47.898Z,73.79
2023-05-19T04:39:47.261Z,67.44
2023-05-19T04:40:47.293Z,71.01
2023-05-19T04:41:47.278Z,71.65
2023-05-19T04:42:47.238Z,65.94
2023-05-19T04:43:47.296Z,74.98
2023-05-19T04:44:47.247Z,71.22
2023-05-19T04:45:47.248Z,71.19
2023-05-19T04:46:47.267Z,70.64
2023-05-19T04:47:47.281Z,70.78
2023-05-19T04:48:47.222Z,67.42
2023-05-19T04:49:47.216Z,70.12
2023-05-19T04:50:47.211Z,72.47
2023-05-19T04:51:47.217Z,69.66
2023-05-19T04:52:47.200Z,68.46
2023-05-19T04:53:48.188Z,73.60
2023-05-19T04:54:47.214Z,69.33
2023-05-19T04:55:47.169Z,69.92
2023-05-19T04:56:47.179Z,66.71
2023-05-19T04:57:47.174Z,72.77
2023-05-19T04:58:47.169Z,67.91
2023-05-19T04:59:47.172Z,70.40
2023-05-19T05:00:47.172Z,66.49
2023-05-19T05:01:48.202Z,66.28
2023-05-19T05:02:47.243Z,73.63
2023-05-19T05:03:47.173Z,70.70
2023-05-19T05:04:47.130Z,70.55
2023-05-19T05:05:47.119Z,77.60
2023-05-19T05:06:47.150Z,70.48
2023-05-19T05:07:47.118Z,65.81
2023-05-19T05:08:47.122Z,68.83
2023-05-19T05:09:47.118Z,72.44
2023-05-19T05:10:47.099Z,70.04
2023-05-19T05:11:47.081Z,71.68
2023-05-19T05:12:47.064Z,70.76
2023-05-19T05:13:47.077Z,67.33
2023-05-19T05:14:47.080Z,68.15
2023-05-19T05:15:47.075Z,73.03
2023-05-19T05:16:47.137Z,69.46
2023-05-19T05:17:47.110Z,70.63
2023-05-19T05:18:47.118Z,73.21
2023-05-19T05:19:47.059Z,71.39
2023-05-19T05:20:47.040Z,74.44
2023-05-19T05:21:47.061Z,69.82
2023-05-19T05:22:47.020Z,70.38
2023-05-19T05:23:47.002Z,69.89
2023-05-19T05:24:47.350Z,72.89
2023-05-19T05:25:46.984Z,72.23
2023-05-19T05:26:46.994Z,70.62
2023-05-19T05:27:47.002Z,70.27
2023-05-19T05:28:46.974Z,73.70
2023-05-19T05:29:47.005Z,68.85
2023-05-19T05:30:46.962Z,71.34
2023-05-19T05:31:46.981Z,70.36
2023-05-19T05:32:47.010Z,71.41
2023-05-19T05:33:47.058Z,69.64
2023-05-19T05:34:46.947Z,69.46
2023-05-19T05:35:46.993Z,66.28
2023-05-19T05:36:46.956Z,67.04
2023-05-19T05:37:46.939Z,72.76
2023-05-19T05:38:46.914Z,76.28
2023-05-19T05:39:46.912Z,71.11
2023-05-19T05:40:46.940Z,71.77
2023-05-19T05:41:46.905Z,68.92
2023-05-19T05:42:46.892Z,68.91
2023-05-19T05:43:46.922Z,75.61
2023-05-19T05:44:46.885Z,73.79
2023-05-19T05:45:46.901Z,73.54
2023-05-19T05:46:46.898Z,68.14
2023-05-19T05:47:47.002Z,70.26
2023-05-19T05:48:46.864Z,72.63
2023-05-19T05:49:46.888Z,71.80
2023-05-19T05:50:46.901Z,71.97
2023-05-19T05:51:57.965Z,72.80
2023-05-19T05:52:48.893Z,69.90
2023-05-19T05:53:46.866Z,68.00
2023-05-19T05:54:46.830Z,70.27
2023-05-19T05:55:46.879Z,71.30
2023-05-19T05:56:46.831Z,71.15
2023-05-19T05:57:47.397Z,71.83
2023-05-19T05:58:46.865Z,66.25
2023-05-19T05:59:46.788Z,66.74
2023-05-19T06:00:46.792Z,71.53
2023-05-19T06:01:46.831Z,73.67
2023-05-19T06:02:46.875Z,70.86
2023-05-19T06:03:46.908Z,75.02
2023-05-19T06:04:46.768Z,70.08
2023-05-19T06:05:46.815Z,66.16
2023-05-19T06:06:47.839Z,70.85
2023-05-19T06:07:46.799Z,67.51
2023-05-19T06:08:46.742Z,70.61
2023-05-19T06:09:46.775Z,70.69
2023-05-19T06:10:47.546Z,73.74
2023-05-19T06:11:47.844Z,72.66
2023-05-19T06:12:46.719Z,71.99
2023-05-19T06:13:47.487Z,71.47
2023-05-19T06:14:46.770Z,73.58
2023-05-19T06:15:46.763Z,69.21
2023-05-19T06:16:46.754Z,73.96
2023-05-19T06:17:49.616Z,71.76
2023-05-19T06:18:46.766Z,72.47
2023-05-19T06:19:46.704Z,65.30
2023-05-19T06:20:46.695Z,69.68
2023-05-19T06:21:46.670Z,66.22
2023-05-19T06:22:46.694Z,73.34
2023-05-19T06:23:46.717Z,71.49
2023-05-19T06:24:46.657Z,69.54
2023-05-19T06:25:46.649Z,66.33
2023-05-19T06:26:46.684Z,69.46
2023-05-19T06:27:46.652Z,69.70
2023-05-19T06:28:46.657Z,66.83
2023-05-19T06:29:46.641Z,66.08
2023-05-19T06:30:46.652Z,71.15
2023-05-19T06:31:46.691Z,72.95
2023-05-19T06:32:46.651Z,72.48
2023-05-19T06:33:46.614Z,70.72
2023-05-19T06:34:46.648Z,67.08
2023-05-19T06:35:46.677Z,71.21
2023-05-19T06:36:46.627Z,72.66
2023-05-19T06:37:46.584Z,71.31
2023-05-19T06:38:46.612Z,69.82
2023-05-19T06:39:46.615Z,71.56
2023-05-19T06:40:46.618Z,70.74
2023-05-19T06:41:46.581Z,73.15
2023-05-19T06:42:47.393Z,74.36
2023-05-19T06:43:46.527Z,68.62
2023-05-19T06:44:46.535Z,72.47
2023-05-19T06:45:46.566Z,73.31
2023-05-19T06:46:46.614Z,68.95
2023-05-19T06:47:46.532Z,70.47
2023-05-19T06:48:47.493Z,72.79
2023-05-19T06:49:46.501Z,65.80
2023-05-19T06:50:46.497Z,71.64
2023-05-19T06:51:46.505Z,71.34
2023-05-19T06:52:46.486Z,73.89
2023-05-19T06:53:46.479Z,74.32
2023-05-19T06:54:46.472Z,72.57
2023-05-19T06:55:57.911Z,71.39
2023-05-19T06:56:48.465Z,67.55
2023-05-19T06:57:46.554Z,70.50
2023-05-19T06:58:46.455Z,66.89
2023-05-19T06:59:46.448Z,68.09
2023-05-19T07:00:46.477Z,71.72
2023-05-19T07:01:46.478Z,71.83
2023-05-19T07:02:46.580Z,73.28
2023-05-19T07:03:46.525Z,69.07
2023-05-19T07:04:46.426Z,67.91
2023-05-19T07:05:46.398Z,75.33
2023-05-19T07:06:46.374Z,72.57
2023-05-19T07:07:46.466Z,72.86
2023-05-19T07:08:46.451Z,69.27
2023-05-19T07:09:46.363Z,70.94
2023-05-19T07:10:46.391Z,71.12
2023-05-19T07:11:46.412Z,69.88
2023-05-19T07:12:46.351Z,71.36
2023-05-19T07:13:46.383Z,69.82
2023-05-19T07:14:46.350Z,68.22
2023-05-19T07:15:47.383Z,74.59
2023-05-19T07:16:46.658Z,71.94
2023-05-19T07:17:46.358Z,74.82
2023-05-19T07:18:46.352Z,73.68
2023-05-19T07:19:46.394Z,74.91
2023-05-19T07:20:46.392Z,71.21
2023-05-19T07:21:46.376Z,69.00
2023-05-19T07:22:46.508Z,74.88
2023-05-19T07:23:46.274Z,66.46
2023-05-19T07:24:46.304Z,72.06
2023-05-19T07:25:46.269Z,73.21
2023-05-19T07:26:46.286Z,74.52
2023-05-19T07:27:46.233Z,69.84
2023-05-19T07:28:46.645Z,72.00
2023-05-19T07:29:46.257Z,71.74
2023-05-19T07:30:46.243Z,73.43
2023-05-19T07:31:46.327Z,70.96
2023-05-19T07:32:46.289Z,71.94
2023-05-19T07:33:46.248Z,69.20
2023-05-19T07:34:46.196Z,67.98
2023-05-19T07:35:46.214Z,72.40
2023-05-19T07:36:46.218Z,70.42
2023-05-19T07:37:46.193Z,67.77
2023-05-19T07:38:46.251Z,71.03
2023-05-19T07:39:46.234Z,75.67
2023-05-19T07:40:46.256Z,74.88
2023-05-19T07:41:46.215Z,71.30
2023-05-19T07:42:46.197Z,70.76
2023-05-19T07:43:46.160Z,71.78
2023-05-19T07:44:46.153Z,71.28
2023-05-19T07:45:46.176Z,72.58
2023-05-19T07:46:47.266Z,70.17
2023-05-19T07:47:46.174Z,71.36
2023-05-19T07:48:46.123Z,72.05
2023-05-19T07:49:46.162Z,70.83
2023-05-19T07:50:46.135Z,71.00
2023-05-19T07:51:46.215Z,69.62
2023-05-19T07:52:46.108Z,71.99
2023-05-19T07:53:46.099Z,68.09
2023-05-19T07:54:46.091Z,72.24
2023-05-19T07:55:46.204Z,68.35
2023-05-19T07:56:46.100Z,71.55
2023-05-19T07:57:46.173Z,74.83
2023-05-19T07:58:46.137Z,72.83
2023-05-19T07:59:46.264Z,72.57
2023-05-19T08:00:46.107Z,71.75
2023-05-19T08:01:46.042Z,71.58
2023-05-19T08:02:46.178Z,72.03
2023-05-19T08:03:46.192Z,72.35
2023-05-19T08:04:46.056Z,71.90
2023-05-19T08:05:46.027Z,70.18
2023-05-19T08:06:46.001Z,72.37
2023-05-19T08:07:45.998Z,70.00
2023-05-19T08:08:46.044Z,72.21
2023-05-19T08:09:46.024Z,72.57
2023-05-19T08:10:45.965Z,73.43
2023-05-19T08:11:46.029Z,70.33
2023-05-19T08:12:45.957Z,65.76
2023-05-19T08:13:45.963Z,70.99
2023-05-19T08:14:45.954Z,69.86
2023-05-19T08:15:45.975Z,70.60
2023-05-19T08:16:45.970Z,70.52
2023-05-19T08:17:45.999Z,72.30
2023-05-19T08:18:46.012Z,74.08
2023-05-19T08:19:45.961Z,75.04
2023-05-19T08:20:46.000Z,71.97
2023-05-19T08:21:45.947Z,73.14
2023-05-19T08:22:45.933Z,69.11
2023-05-19T08:23:45.922Z,70.73
2023-05-19T08:24:45.952Z,73.31
2023-05-19T08:25:46.025Z,72.43
2023-05-19T08:26:45.951Z,71.14
2023-05-19T08:27:45.928Z,73.05
2023-05-19T08:28:45.867Z,71.01
2023-05-19T08:29:45.885Z,74.14
2023-05-19T08:30:45.974Z,69.66
2023-05-19T08:31:46.008Z,70.93
2023-05-19T08:32:45.918Z,69.80
2023-05-19T08:33:45.951Z,72.38
2023-05-19T08:34:45.890Z,71.24
2023-05-19T08:35:45.912Z,72.23
2023-05-19T08:36:45.921Z,69.03
2023-05-19T08:37:45.863Z,71.58
2023-05-19T08:38:46.090Z,72.13
2023-05-19T08:39:45.852Z,71.86
2023-05-19T08:40:45.859Z,73.36
2023-05-19T08:41:45.906Z,71.49
2023-05-19T08:42:45.875Z,72.93
2023-05-19T08:43:45.791Z,71.74
2023-05-19T08:44:45.794Z,73.44
2023-05-19T08:45:45.784Z,66.73
2023-05-19T08:46:45.843Z,70.57
2023-05-19T08:47:45.803Z,71.06
2023-05-19T08:48:45.777Z,72.63
2023-05-19T08:49:45.762Z,73.55
2023-05-19T08:50:45.764Z,71.43
2023-05-19T08:51:45.756Z,71.62
2023-05-19T08:52:49.495Z,71.66
2023-05-19T08:53:46.741Z,66.32
2023-05-19T08:54:45.724Z,71.30
2023-05-19T08:55:45.706Z,66.20
2023-05-19T08:56:45.809Z,74.15
2023-05-19T08:57:45.729Z,73.93
2023-05-19T08:58:45.692Z,67.40
2023-05-19T08:59:45.716Z,71.03
2023-05-19T09:00:45.697Z,69.28
2023-05-19T09:01:46.534Z,69.21
2023-05-19T09:02:55.172Z,72.93
2023-05-19T09:03:47.684Z,69.29
2023-05-19T09:04:45.742Z,66.70
2023-05-19T09:05:45.687Z,75.19
2023-05-19T09:06:45.625Z,73.73
2023-05-19T09:07:46.456Z,68.80
2023-05-19T09:08:45.590Z,72.54
2023-05-19T09:09:45.654Z,70.61
2023-05-19T09:10:45.622Z,69.41
2023-05-19T09:11:46.492Z,68.08
2023-05-19T09:12:45.583Z,71.61
2023-05-19T09:13:45.611Z,72.24
2023-05-19T09:14:45.568Z,73.43
2023-05-19T09:15:45.689Z,72.00
2023-05-19T09:16:45.615Z,72.93
2023-05-19T09:17:45.609Z,73.70
2023-05-19T09:18:45.613Z,74.24
2023-05-19T09:19:45.573Z,71.88
2023-05-19T09:20:45.564Z,72.14
2023-05-19T09:21:45.703Z,72.26
2023-05-19T09:22:45.565Z,71.65
2023-05-19T09:23:45.566Z,70.35
2023-05-19T09:24:45.522Z,71.68
2023-05-19T09:25:45.510Z,71.79
2023-05-19T09:26:45.530Z,75.36
2023-05-19T09:27:45.512Z,71.90
2023-05-19T09:28:45.510Z,72.81
2023-05-19T09:29:45.556Z,72.39
2023-05-19T09:30:45.524Z,71.39
2023-05-19T09:31:45.649Z,70.94
2023-05-19T09:32:45.523Z,73.44
2023-05-19T09:33:46.081Z,76.36
2023-05-19T09:34:46.499Z,74.84
2023-05-19T09:35:45.494Z,74.55
2023-05-19T09:36:45.485Z,72.77
2023-05-19T09:37:45.470Z,74.02
2023-05-19T09:38:45.454Z,69.78
2023-05-19T09:39:45.450Z,68.62
2023-05-19T09:40:45.414Z,72.66
2023-05-19T09:41:45.494Z,71.26
2023-05-19T09:42:45.409Z,72.06
2023-05-19T09:43:45.403Z,70.54
2023-05-19T09:44:45.497Z,71.89
2023-05-19T09:45:45.443Z,71.72
2023-05-19T09:46:45.436Z,70.75
2023-05-19T09:47:45.412Z,73.16
2023-05-19T09:48:45.408Z,71.02
2023-05-19T09:49:45.387Z,73.63
2023-05-19T09:50:45.361Z,75.62
2023-05-19T09:51:45.357Z,74.18
2023-05-19T09:52:45.369Z,72.69
2023-05-19T09:53:45.349Z,71.31
2023-05-19T09:54:45.376Z,73.39
2023-05-19T09:55:45.330Z,68.79
2023-05-19T09:56:45.384Z,72.78
2023-05-19T09:57:45.375Z,71.79
2023-05-19T09:58:45.572Z,74.26
2023-05-19T09:59:45.320Z,70.42
2023-05-19T10:00:45.386Z,71.43
2023-05-19T10:01:45.357Z,73.71
2023-05-19T10:02:45.467Z,72.11
2023-05-19T10:03:45.309Z,74.17
2023-05-19T10:04:45.879Z,72.26
2023-05-19T10:05:45.293Z,71.41
2023-05-19T10:06:45.522Z,74.68
2023-05-19T10:07:46.040Z,71.28
2023-05-19T10:08:45.270Z,69.85
2023-05-19T10:09:45.278Z,73.21
2023-05-19T10:10:45.265Z,70.89
2023-05-19T10:11:45.584Z,67.25
2023-05-19T10:12:45.241Z,74.69
2023-05-19T10:13:45.260Z,70.70
2023-05-19T10:14:45.245Z,75.14
2023-05-19T10:15:57.024Z,73.51
2023-05-19T10:16:47.251Z,71.20
2023-05-19T10:17:45.273Z,71.19
2023-05-19T10:18:45.219Z,75.32
2023-05-19T10:19:45.204Z,73.60
2023-05-19T10:20:45.196Z,71.29
2023-05-19T10:21:45.172Z,74.87
2023-05-19T10:22:45.990Z,72.92
2023-05-19T10:23:45.172Z,71.78
2023-05-19T10:24:45.305Z,71.27
2023-05-19T10:25:45.168Z,72.63
2023-05-19T10:26:45.152Z,71.41
2023-05-19T10:27:45.137Z,73.82
2023-05-19T10:28:45.166Z,71.93
2023-05-19T10:29:45.152Z,71.20
2023-05-19T10:30:45.104Z,69.21
2023-05-19T10:31:45.166Z,74.68
2023-05-19T10:32:45.224Z,72.97
2023-05-19T10:33:45.122Z,72.20
2023-05-19T10:34:45.154Z,71.39
2023-05-19T10:35:46.055Z,69.76
2023-05-19T10:36:46.190Z,72.41
2023-05-19T10:37:45.085Z,69.71
2023-05-19T10:38:46.190Z,73.68
2023-05-19T10:39:45.500Z,69.46
2023-05-19T10:40:45.059Z,71.90
2023-05-19T10:41:45.723Z,69.65
2023-05-19T10:42:45.154Z,73.16
2023-05-19T10:43:46.379Z,69.65
2023-05-19T10:44:45.077Z,71.49
2023-05-19T10:45:45.031Z,70.56
2023-05-19T10:46:45.091Z,70.20
2023-05-19T10:47:45.976Z,72.57
2023-05-19T10:48:45.007Z,70.37
2023-05-19T10:49:45.033Z,65.40
2023-05-19T10:50:45.000Z,70.82
2023-05-19T10:51:44.997Z,71.70
2023-05-19T10:52:45.011Z,72.62
2023-05-19T10:53:44.980Z,71.64
2023-05-19T10:54:44.981Z,71.93
2023-05-19T10:55:44.962Z,72.73
2023-05-19T10:56:44.951Z,74.99
2023-05-19T10:57:45.490Z,72.46
2023-05-19T10:58:44.974Z,70.16
2023-05-19T10:59:45.009Z,73.45
2023-05-19T11:00:45.154Z,72.59
2023-05-19T11:01:45.015Z,70.68
2023-05-19T11:02:44.955Z,71.63
2023-05-19T11:03:44.937Z,70.03
2023-05-19T11:04:45.003Z,69.04
2023-05-19T11:05:44.900Z,70.85
2023-05-19T11:06:44.935Z,74.02
2023-05-19T11:07:44.951Z,71.63
2023-05-19T11:08:44.947Z,72.90
2023-05-19T11:09:45.522Z,72.18
2023-05-19T11:10:44.911Z,73.41
2023-05-19T11:11:44.918Z,71.32
2023-05-19T11:12:44.879Z,72.20
2023-05-19T11:13:44.859Z,65.62
2023-05-19T11:14:45.052Z,72.40
2023-05-19T11:15:44.851Z,72.98
2023-05-19T11:16:44.910Z,70.84
2023-05-19T11:17:44.856Z,71.83
2023-05-19T11:18:44.935Z,73.75
2023-05-19T11:19:44.864Z,71.64
2023-05-19T11:20:44.828Z,74.31
2023-05-19T11:21:44.816Z,73.05
2023-05-19T11:22:44.840Z,71.78
2023-05-19T11:23:44.836Z,71.18
2023-05-19T11:24:44.883Z,72.10
2023-05-19T11:25:44.869Z,69.74
2023-05-19T11:26:45.341Z,73.06
2023-05-19T11:27:44.846Z,71.88
2023-05-19T11:28:44.786Z,70.56
2023-05-19T11:29:47.588Z,72.44
2023-05-19T11:30:44.896Z,72.50
2023-05-19T11:31:44.836Z,73.12
2023-05-19T11:32:44.778Z,70.16
2023-05-19T11:33:44.736Z,74.03
2023-05-19T11:34:44.760Z,69.70
2023-05-19T11:35:44.728Z,73.34
2023-05-19T11:36:44.749Z,70.42
2023-05-19T11:37:44.711Z,72.01
2023-05-19T11:38:44.695Z,70.74
2023-05-19T11:39:44.685Z,73.09
2023-05-19T11:40:44.675Z,72.81
2023-05-19T11:41:44.727Z,72.48
2023-05-19T11:42:44.688Z,70.80
2023-05-19T11:43:44.664Z,71.64
2023-05-19T11:44:44.742Z,71.29
2023-05-19T11:45:44.700Z,72.06
2023-05-19T11:46:44.679Z,73.71
2023-05-19T11:48:00.232Z,73.27
2023-05-19T11:48:46.690Z,73.47
2023-05-19T11:49:44.657Z,72.42
2023-05-19T11:50:44.620Z,72.37
2023-05-19T11:51:44.634Z,69.32
2023-05-19T11:52:44.618Z,72.26
2023-05-19T11:53:44.627Z,72.14
2023-05-19T11:54:44.638Z,71.12
2023-05-19T11:55:44.617Z,73.52
2023-05-19T11:56:44.586Z,71.76
2023-05-19T11:57:56.005Z,70.59
2023-05-19T11:58:45.625Z,74.00
2023-05-19T11:59:44.562Z,69.26
2023-05-19T12:00:44.611Z,71.47
2023-05-19T12:01:44.610Z,72.63
2023-05-19T12:02:46.577Z,72.60
2023-05-19T12:03:45.935Z,72.02
2023-05-19T12:04:46.826Z,69.26
2023-05-19T12:05:45.930Z,73.10
2023-05-19T12:06:47.938Z,71.94
2023-05-19T12:07:51.805Z,70.01
2023-05-19T12:08:47.191Z,66.64
2023-05-19T12:09:45.803Z,72.95
2023-05-19T12:10:47.081Z,70.38
2023-05-19T12:11:47.731Z,72.24
2023-05-19T12:12:46.682Z,70.52
2023-05-19T12:13:45.492Z,72.66
2023-05-19T12:14:46.319Z,70.38
2023-05-19T12:15:55.706Z,71.84
2023-05-19T12:16:44.585Z,73.48
2023-05-19T12:17:45.476Z,69.69
2023-05-19T12:18:44.529Z,75.05
2023-05-19T12:19:44.483Z,71.20
2023-05-19T12:20:44.479Z,72.28
2023-05-19T12:21:44.452Z,72.23
2023-05-19T12:22:44.441Z,71.23
2023-05-19T12:23:44.439Z,71.88
2023-05-19T12:24:44.533Z,74.03
2023-05-19T12:25:44.452Z,69.78
2023-05-19T12:26:44.459Z,72.13
2023-05-19T12:27:44.469Z,70.77
2023-05-19T12:28:45.409Z,73.12
2023-05-19T12:29:44.401Z,69.79
2023-05-19T12:30:44.415Z,71.23
2023-05-19T12:31:44.415Z,73.42
2023-05-19T12:32:44.382Z,68.46
2023-05-19T12:33:44.992Z,73.65
2023-05-19T12:34:44.380Z,67.86
2023-05-19T12:35:44.381Z,72.00
2023-05-19T12:36:44.350Z,72.37
2023-05-19T12:37:44.406Z,73.28
2023-05-19T12:38:44.358Z,74.20
2023-05-19T12:39:44.398Z,71.46
2023-05-19T12:40:44.324Z,73.63
2023-05-19T12:41:44.319Z,70.97
2023-05-19T12:42:44.311Z,72.59
2023-05-19T12:43:44.329Z,74.44
2023-05-19T12:44:44.299Z,71.66
2023-05-19T12:45:44.316Z,72.74
2023-05-19T12:46:44.309Z,72.63
2023-05-19T12:47:44.411Z,72.12
2023-05-19T12:48:44.297Z,75.06
2023-05-19T12:49:44.330Z,72.06
2023-05-19T12:50:45.484Z,74.97
2023-05-19T12:51:44.299Z,74.13
2023-05-19T12:52:44.262Z,74.70